createdAt,value
2018-05-11T08:01:55.359Z,21.10
2018-05-11T08:04:21.755Z,18.77
2018-05-11T08:06:48.149Z,19.48
2018-05-11T08:09:14.521Z,19.80
2018-05-11T08:11:40.937Z,18.73
2018-05-11T08:14:07.376Z,18.10
2018-05-11T08:16:33.758Z,18.23
2018-05-11T08:19:00.168Z,20.70
2018-05-11T08:21:27.319Z,19.73
2018-05-11T08:23:54.454Z,19.77
2018-05-11T08:26:20.844Z,20.77
2018-05-11T08:28:47.263Z,21.48
2018-05-11T08:31:15.745Z,20.98
2018-05-11T08:33:46.613Z,22.35
2018-05-11T08:36:14.373Z,21.90
2018-05-11T08:38:41.109Z,21.60
2018-05-11T08:41:07.837Z,21.90
2018-05-11T08:43:35.220Z,22.27
2018-05-11T08:46:02.826Z,22.95
2018-05-11T08:48:29.949Z,21.37
2018-05-11T08:50:56.396Z,20.12
2018-05-11T08:53:23.203Z,21.33
2018-05-11T08:55:50.809Z,22.08
2018-05-11T08:58:17.372Z,22.27
2018-05-11T09:00:43.808Z,21.50
2018-05-11T09:03:10.188Z,21.87
2018-05-11T09:05:36.598Z,20.98
2018-05-11T09:08:02.993Z,21.45
2018-05-11T09:10:30.499Z,19.77
2018-05-11T09:12:59.262Z,20.10
2018-05-11T09:15:25.733Z,20.73
2018-05-11T09:17:54.301Z,21.13
2018-05-11T09:20:21.841Z,21.27
2018-05-11T09:22:48.236Z,21.48
2018-05-11T09:25:14.611Z,21.25
2018-05-11T09:27:41.013Z,19.62
2018-05-11T09:30:08.132Z,19.30
2018-05-11T09:32:34.551Z,20.00
2018-05-11T09:35:00.945Z,19.87
2018-05-11T09:37:28.105Z,22.00
2018-05-11T09:39:55.237Z,20.73
2018-05-11T09:42:22.404Z,20.37
2018-05-11T09:44:49.585Z,20.47
2018-05-11T09:47:16.171Z,21.23
2018-05-11T09:49:42.561Z,19.42
2018-05-11T09:52:08.975Z,18.37
2018-05-11T09:54:35.369Z,20.25
2018-05-11T09:57:01.759Z,20.85
2018-05-11T09:59:28.172Z,19.90
2018-05-11T10:01:55.309Z,19.25
2018-05-11T10:04:22.497Z,19.80
2018-05-11T10:06:48.868Z,18.48
2018-05-11T10:09:15.280Z,19.33
2018-05-11T10:11:41.717Z,18.00
2018-05-11T10:14:08.130Z,19.92
2018-05-11T10:16:34.526Z,18.40
2018-05-11T10:19:01.681Z,19.58
2018-05-11T10:21:28.801Z,19.73
2018-05-11T10:23:55.216Z,19.15
2018-05-11T10:26:21.596Z,19.55
2018-05-11T10:28:48.829Z,20.15
2018-05-11T10:31:15.193Z,17.27
2018-05-11T10:33:42.324Z,19.20
2018-05-11T10:36:08.708Z,18.58
2018-05-11T10:38:35.117Z,19.48
2018-05-11T10:41:02.253Z,16.90
2018-05-11T10:43:29.386Z,19.20
2018-05-11T10:45:55.856Z,18.35
2018-05-11T10:48:23.012Z,18.57
2018-05-11T10:50:49.413Z,17.62
2018-05-11T10:53:15.848Z,19.10
2018-05-11T10:55:42.254Z,17.85
2018-05-11T10:58:08.641Z,18.83
2018-05-11T11:00:35.800Z,18.05
2018-05-11T11:03:02.188Z,19.60
2018-05-11T11:05:28.600Z,17.92
2018-05-11T11:07:54.984Z,18.70
2018-05-11T11:10:22.155Z,19.42
2018-05-11T11:12:48.540Z,19.52
2018-05-11T11:15:14.967Z,19.45
2018-05-11T11:17:41.392Z,19.10
2018-05-11T11:20:07.785Z,18.95
2018-05-11T11:22:34.935Z,19.90
2018-05-11T11:25:02.119Z,19.05
2018-05-11T11:27:28.520Z,19.20
2018-05-11T11:29:55.641Z,18.60
2018-05-11T11:32:22.038Z,20.00
2018-05-11T11:34:48.459Z,21.17
2018-05-11T11:37:15.577Z,18.87
2018-05-11T11:39:42.712Z,19.37
2018-05-11T11:42:09.125Z,20.40
2018-05-11T11:44:35.552Z,20.55
2018-05-11T11:47:01.969Z,18.45
2018-05-11T11:49:28.360Z,20.12
2018-05-11T11:51:54.739Z,19.92
2018-05-11T11:54:21.127Z,19.57
2018-05-11T11:56:48.262Z,18.83
2018-05-11T11:59:14.660Z,18.75
2018-05-11T12:01:41.113Z,18.12
2018-05-11T12:04:08.195Z,18.50
2018-05-11T12:06:34.597Z,17.55
2018-05-11T12:09:01.034Z,19.50
2018-05-11T12:11:27.416Z,17.20
2018-05-11T12:13:54.612Z,17.55
2018-05-11T12:16:21.021Z,18.37
2018-05-11T12:18:47.432Z,19.15
2018-05-11T12:21:14.601Z,18.75
2018-05-11T12:23:40.988Z,16.70
2018-05-11T12:26:07.421Z,16.70
2018-05-11T12:28:33.828Z,14.45
2018-05-11T12:31:00.288Z,15.93
2018-05-11T12:33:26.667Z,15.10
2018-05-11T12:35:53.844Z,15.95
2018-05-11T12:38:20.340Z,17.05
2018-05-11T12:40:47.550Z,15.75
2018-05-11T12:43:14.050Z,15.70
2018-05-11T12:45:40.460Z,14.77
2018-05-11T12:48:07.627Z,14.43
2018-05-11T12:50:34.817Z,14.82
2018-05-11T12:53:01.257Z,17.20
2018-05-11T12:55:27.665Z,17.00
2018-05-11T12:57:54.040Z,16.02
2018-05-11T13:00:20.445Z,15.70
2018-05-11T13:02:46.812Z,14.40
2018-05-11T13:05:13.271Z,16.03
2018-05-11T13:07:40.392Z,14.05
2018-05-11T13:10:06.837Z,13.50
2018-05-11T13:12:33.223Z,14.68
2018-05-11T13:14:59.604Z,14.43
2018-05-11T13:17:26.024Z,13.93
2018-05-11T13:19:52.447Z,14.32
2018-05-11T13:22:18.841Z,13.60
2018-05-11T13:24:45.964Z,14.00
2018-05-11T13:27:12.370Z,13.30
2018-05-11T13:29:38.749Z,13.77
2018-05-11T13:32:05.155Z,13.70
2018-05-11T13:34:31.560Z,11.43
2018-05-11T13:36:57.972Z,10.60
2018-05-11T13:39:24.409Z,11.50
2018-05-11T13:41:50.816Z,12.40
2018-05-11T13:44:18.046Z,11.12
2018-05-11T13:46:44.468Z,13.10
2018-05-11T13:49:10.875Z,12.15
2018-05-11T13:51:37.294Z,13.60
2018-05-11T13:54:03.720Z,12.80
2018-05-11T13:56:30.183Z,11.63
2018-05-11T13:58:56.575Z,11.07
2018-05-11T14:01:23.784Z,13.43
2018-05-11T14:03:50.216Z,13.00
2018-05-11T14:06:16.624Z,13.00
2018-05-11T14:08:43.010Z,13.70
2018-05-11T14:11:09.448Z,11.85
2018-05-11T14:13:36.572Z,12.60
2018-05-11T14:16:03.015Z,13.43
2018-05-11T14:18:29.420Z,12.30
2018-05-11T14:20:55.792Z,13.65
2018-05-11T14:23:22.232Z,11.70
2018-05-11T14:25:48.664Z,11.10
2018-05-11T14:28:15.079Z,9.73
2018-05-11T14:30:41.508Z,11.57
2018-05-11T14:33:07.916Z,12.23
2018-05-11T14:35:34.305Z,11.98
2018-05-11T14:38:00.857Z,9.30
2018-05-11T17:04:20.599Z,9.30
2018-05-11T17:06:47.744Z,9.37
2018-05-11T17:09:14.124Z,10.40
2018-05-11T17:11:40.544Z,8.30
2018-05-11T17:14:06.951Z,7.83
2018-05-11T17:16:34.149Z,7.33
2018-05-11T17:19:01.256Z,7.17
2018-05-11T17:21:28.371Z,7.77
2018-05-11T17:23:54.769Z,7.97
2018-05-11T17:26:21.156Z,8.70
2018-05-11T17:28:47.557Z,9.50
2018-05-11T17:31:13.939Z,7.20
2018-05-11T17:33:41.085Z,7.53
2018-05-11T17:36:07.458Z,8.03
2018-05-11T17:38:33.864Z,7.57
2018-05-11T17:41:00.985Z,7.93
2018-05-11T17:43:27.405Z,8.00
2018-05-11T17:45:53.812Z,8.10
2018-05-11T17:48:20.244Z,8.20
2018-05-11T17:50:46.631Z,8.27
2018-05-11T17:53:13.015Z,8.83
2018-05-11T17:55:39.418Z,8.27
2018-05-11T17:58:06.585Z,8.57
2018-05-11T18:00:33.745Z,8.43
2018-05-11T18:03:00.218Z,8.17
2018-05-11T18:05:27.310Z,8.60
2018-05-11T18:07:54.455Z,8.80
2018-05-11T18:10:21.708Z,9.67
2018-05-11T18:12:48.764Z,8.90
2018-05-11T18:15:15.884Z,8.93
2018-05-11T18:17:42.293Z,8.93
2018-05-11T18:20:08.665Z,9.60
